New Liberty, Kentucky
Current Conditions -  °F | °C
As of 12:53 PM on Tuesday 21 Oct 2014 (Local Time) from KFFT Reporting Station
Overcast Overcast  
Wind Chill: 57°   Ceiling: 5000
Heat Index: 57°   Visibility: 10mi
Dew Point: 40°   Wind: 10mph
Humidity: 53%   Direction: 330°NNW
Pressure: 30.06"   Gusts: 22mph
Location:  38.62°N, 84.91°W
Report Text: KFFT 211653Z AUTO 33009G19KT 10SM OVC050 14/04 A3006 RMK AO2 SLP176 T01390044
Loading
Personal Weather Stations






























Interactive Weather Map
Tropical Storm Tracking
New forecast layout! Learn more

10-Day Weather Forecast

Advertisements
Track Severe Weather on mobile